sensor_id;sensor_type;location;lat;lon;timestamp;P1;durP1;ratioP1;P2;durP2;ratioP2
7076;SDS011;3579;48.956;9.154;2023-05-14T00:01:48;0.90;;;0.90;;
7076;SDS011;3579;48.956;9.154;2023-05-14T00:04:16;0.87;;;0.87;;
7076;SDS011;3579;48.956;9.154;2023-05-14T00:06:44;0.93;;;0.93;;
7076;SDS011;3579;48.956;9.154;2023-05-14T00:09:10;0.90;;;0.90;;
7076;SDS011;3579;48.956;9.154;2023-05-14T00:11:37;0.90;;;0.90;;
7076;SDS011;3579;48.956;9.154;2023-05-14T00:14:03;1.10;;;1.00;;
7076;SDS011;3579;48.956;9.154;2023-05-14T00:16:29;0.97;;;0.97;;
7076;SDS011;3579;48.956;9.154;2023-05-14T00:18:55;1.20;;;1.10;;
7076;SDS011;3579;48.956;9.154;2023-05-14T00:21:21;1.10;;;1.00;;
7076;SDS011;3579;48.956;9.154;2023-05-14T00:23:48;0.80;;;0.80;;
7076;SDS011;3579;48.956;9.154;2023-05-14T00:26:13;1.10;;;1.00;;
7076;SDS011;3579;48.956;9.154;2023-05-14T00:28:40;1.20;;;1.10;;
7076;SDS011;3579;48.956;9.154;2023-05-14T00:31:06;1.10;;;1.00;;
7076;SDS011;3579;48.956;9.154;2023-05-14T00:33:32;1.07;;;1.00;;
7076;SDS011;3579;48.956;9.154;2023-05-14T00:35:58;0.90;;;0.90;;
7076;SDS011;3579;48.956;9.154;2023-05-14T00:38:24;1.10;;;1.00;;
7076;SDS011;3579;48.956;9.154;2023-05-14T00:40:52;0.90;;;0.90;;
7076;SDS011;3579;48.956;9.154;2023-05-14T00:43:19;0.90;;;0.90;;
7076;SDS011;3579;48.956;9.154;2023-05-14T00:45:49;1.00;;;0.90;;
7076;SDS011;3579;48.956;9.154;2023-05-14T00:48:16;0.80;;;0.80;;
7076;SDS011;3579;48.956;9.154;2023-05-14T00:50:42;1.00;;;1.00;;
7076;SDS011;3579;48.956;9.154;2023-05-14T00:53:08;0.80;;;0.80;;
7076;SDS011;3579;48.956;9.154;2023-05-14T00:55:36;0.80;;;0.80;;
7076;SDS011;3579;48.956;9.154;2023-05-14T00:58:06;0.97;;;0.97;;
7076;SDS011;3579;48.956;9.154;2023-05-14T01:00:36;0.80;;;0.80;;
7076;SDS011;3579;48.956;9.154;2023-05-14T01:03:03;0.93;;;0.93;;
7076;SDS011;3579;48.956;9.154;2023-05-14T01:16:20;0.80;;;0.80;;
7076;SDS011;3579;48.956;9.154;2023-05-14T01:18:51;0.90;;;0.90;;
7076;SDS011;3579;48.956;9.154;2023-05-14T01:21:23;0.83;;;0.83;;
7076;SDS011;3579;48.956;9.154;2023-05-14T01:23:57;0.90;;;0.90;;
7076;SDS011;3579;48.956;9.154;2023-05-14T01:26:23;0.83;;;0.83;;
7076;SDS011;3579;48.956;9.154;2023-05-14T01:28:49;0.87;;;0.87;;
7076;SDS011;3579;48.956;9.154;2023-05-14T01:31:17;0.90;;;0.90;;
7076;SDS011;3579;48.956;9.154;2023-05-14T01:33:52;0.80;;;0.80;;
7076;SDS011;3579;48.956;9.154;2023-05-14T01:36:20;1.10;;;1.00;;
7076;SDS011;3579;48.956;9.154;2023-05-14T01:38:47;0.80;;;0.80;;
7076;SDS011;3579;48.956;9.154;2023-05-14T01:41:15;0.80;;;0.80;;
7076;SDS011;3579;48.956;9.154;2023-05-14T01:43:43;0.90;;;0.90;;
7076;SDS011;3579;48.956;9.154;2023-05-14T01:46:10;0.87;;;0.87;;
7076;SDS011;3579;48.956;9.154;2023-05-14T01:48:36;0.80;;;0.80;;
7076;SDS011;3579;48.956;9.154;2023-05-14T01:51:02;1.00;;;0.97;;
7076;SDS011;3579;48.956;9.154;2023-05-14T01:53:28;0.80;;;0.80;;
7076;SDS011;3579;48.956;9.154;2023-05-14T01:55:54;0.87;;;0.87;;
7076;SDS011;3579;48.956;9.154;2023-05-14T01:58:20;0.80;;;0.80;;
7076;SDS011;3579;48.956;9.154;2023-05-14T02:00:46;0.80;;;0.80;;
7076;SDS011;3579;48.956;9.154;2023-05-14T02:03:12;1.00;;;1.00;;
7076;SDS011;3579;48.956;9.154;2023-05-14T02:05:38;0.80;;;0.80;;
7076;SDS011;3579;48.956;9.154;2023-05-14T02:08:04;0.83;;;0.80;;
7076;SDS011;3579;48.956;9.154;2023-05-14T02:10:30;0.80;;;0.80;;
7076;SDS011;3579;48.956;9.154;2023-05-14T02:12:56;0.80;;;0.80;;
7076;SDS011;3579;48.956;9.154;2023-05-14T02:15:22;0.90;;;0.90;;
7076;SDS011;3579;48.956;9.154;2023-05-14T02:17:48;0.70;;;0.70;;
7076;SDS011;3579;48.956;9.154;2023-05-14T02:20:14;0.90;;;0.90;;
7076;SDS011;3579;48.956;9.154;2023-05-14T02:22:40;0.80;;;0.80;;
7076;SDS011;3579;48.956;9.154;2023-05-14T02:25:09;0.80;;;0.80;;
7076;SDS011;3579;48.956;9.154;2023-05-14T02:27:35;0.90;;;0.90;;
7076;SDS011;3579;48.956;9.154;2023-05-14T02:30:02;0.80;;;0.80;;
7076;SDS011;3579;48.956;9.154;2023-05-14T02:32:29;0.80;;;0.80;;
7076;SDS011;3579;48.956;9.154;2023-05-14T02:34:55;0.90;;;0.90;;
7076;SDS011;3579;48.956;9.154;2023-05-14T02:37:21;0.90;;;0.90;;
7076;SDS011;3579;48.956;9.154;2023-05-14T02:39:47;0.80;;;0.80;;
7076;SDS011;3579;48.956;9.154;2023-05-14T02:42:13;0.90;;;0.90;;
7076;SDS011;3579;48.956;9.154;2023-05-14T02:44:39;0.80;;;0.80;;
7076;SDS011;3579;48.956;9.154;2023-05-14T02:47:05;0.80;;;0.80;;
7076;SDS011;3579;48.956;9.154;2023-05-14T02:49:31;0.80;;;0.80;;
7076;SDS011;3579;48.956;9.154;2023-05-14T02:51:57;0.83;;;0.83;;
7076;SDS011;3579;48.956;9.154;2023-05-14T02:54:25;0.83;;;0.83;;
7076;SDS011;3579;48.956;9.154;2023-05-14T02:56:51;0.77;;;0.77;;
7076;SDS011;3579;48.956;9.154;2023-05-14T02:59:17;1.00;;;0.90;;
7076;SDS011;3579;48.956;9.154;2023-05-14T03:01:43;0.80;;;0.80;;
7076;SDS011;3579;48.956;9.154;2023-05-14T03:04:09;0.80;;;0.80;;
7076;SDS011;3579;48.956;9.154;2023-05-14T03:06:35;0.80;;;0.80;;
7076;SDS011;3579;48.956;9.154;2023-05-14T03:09:01;0.80;;;0.80;;
7076;SDS011;3579;48.956;9.154;2023-05-14T03:11:27;1.10;;;1.00;;
7076;SDS011;3579;48.956;9.154;2023-05-14T03:13:53;0.80;;;0.80;;
7076;SDS011;3579;48.956;9.154;2023-05-14T03:16:19;0.80;;;0.80;;
7076;SDS011;3579;48.956;9.154;2023-05-14T03:18:45;1.00;;;1.00;;
7076;SDS011;3579;48.956;9.154;2023-05-14T03:21:11;0.90;;;0.90;;
7076;SDS011;3579;48.956;9.154;2023-05-14T03:23:37;0.90;;;0.90;;
7076;SDS011;3579;48.956;9.154;2023-05-14T03:26:03;0.80;;;0.80;;
7076;SDS011;3579;48.956;9.154;2023-05-14T03:28:29;1.00;;;1.00;;
7076;SDS011;3579;48.956;9.154;2023-05-14T03:30:55;1.00;;;0.97;;
7076;SDS011;3579;48.956;9.154;2023-05-14T03:33:21;0.80;;;0.80;;
7076;SDS011;3579;48.956;9.154;2023-05-14T03:35:48;0.80;;;0.80;;
7076;SDS011;3579;48.956;9.154;2023-05-14T03:38:14;0.90;;;0.90;;
7076;SDS011;3579;48.956;9.154;2023-05-14T03:40:40;0.80;;;0.80;;
7076;SDS011;3579;48.956;9.154;2023-05-14T03:43:06;1.13;;;1.03;;
7076;SDS011;3579;48.956;9.154;2023-05-14T03:45:32;1.03;;;0.93;;
7076;SDS011;3579;48.956;9.154;2023-05-14T03:47:58;0.90;;;0.90;;
7076;SDS011;3579;48.956;9.154;2023-05-14T03:50:24;1.00;;;1.00;;
7076;SDS011;3579;48.956;9.154;2023-05-14T03:52:50;1.00;;;0.90;;
7076;SDS011;3579;48.956;9.154;2023-05-14T03:55:18;0.90;;;0.90;;
7076;SDS011;3579;48.956;9.154;2023-05-14T03:57:44;0.80;;;0.80;;
7076;SDS011;3579;48.956;9.154;2023-05-14T04:00:10;0.87;;;0.87;;
7076;SDS011;3579;48.956;9.154;2023-05-14T04:02:36;0.90;;;0.90;;
7076;SDS011;3579;48.956;9.154;2023-05-14T04:05:02;0.90;;;0.90;;
7076;SDS011;3579;48.956;9.154;2023-05-14T04:07:29;1.10;;;1.00;;
7076;SDS011;3579;48.956;9.154;2023-05-14T04:09:55;0.80;;;0.80;;
7076;SDS011;3579;48.956;9.154;2023-05-14T04:12:21;0.90;;;0.90;;
7076;SDS011;3579;48.956;9.154;2023-05-14T04:14:47;0.90;;;0.90;;
7076;SDS011;3579;48.956;9.154;2023-05-14T04:17:13;0.90;;;0.90;;
7076;SDS011;3579;48.956;9.154;2023-05-14T04:19:39;0.90;;;0.90;;
7076;SDS011;3579;48.956;9.154;2023-05-14T04:22:05;1.10;;;1.00;;
7076;SDS011;3579;48.956;9.154;2023-05-14T04:24:31;0.90;;;0.90;;
7076;SDS011;3579;48.956;9.154;2023-05-14T04:26:57;0.90;;;0.90;;
7076;SDS011;3579;48.956;9.154;2023-05-14T04:29:23;0.80;;;0.80;;
7076;SDS011;3579;48.956;9.154;2023-05-14T04:31:49;0.80;;;0.80;;
7076;SDS011;3579;48.956;9.154;2023-05-14T04:34:15;0.80;;;0.80;;
7076;SDS011;3579;48.956;9.154;2023-05-14T04:36:41;0.90;;;0.90;;
7076;SDS011;3579;48.956;9.154;2023-05-14T04:39:07;0.90;;;0.90;;
7076;SDS011;3579;48.956;9.154;2023-05-14T04:41:36;0.80;;;0.80;;
7076;SDS011;3579;48.956;9.154;2023-05-14T04:44:03;0.90;;;0.90;;
7076;SDS011;3579;48.956;9.154;2023-05-14T04:46:29;1.00;;;1.00;;
7076;SDS011;3579;48.956;9.154;2023-05-14T04:48:55;0.90;;;0.90;;
7076;SDS011;3579;48.956;9.154;2023-05-14T04:51:21;0.70;;;0.70;;
7076;SDS011;3579;48.956;9.154;2023-05-14T04:53:47;0.90;;;0.90;;
7076;SDS011;3579;48.956;9.154;2023-05-14T04:56:13;0.97;;;0.90;;
7076;SDS011;3579;48.956;9.154;2023-05-14T04:58:39;0.90;;;0.90;;
7076;SDS011;3579;48.956;9.154;2023-05-14T05:01:05;0.90;;;0.90;;
7076;SDS011;3579;48.956;9.154;2023-05-14T05:03:31;0.90;;;0.90;;
7076;SDS011;3579;48.956;9.154;2023-05-14T05:05:57;0.90;;;0.90;;
7076;SDS011;3579;48.956;9.154;2023-05-14T05:08:23;0.80;;;0.80;;
7076;SDS011;3579;48.956;9.154;2023-05-14T05:10:50;0.83;;;0.83;;
7076;SDS011;3579;48.956;9.154;2023-05-14T05:13:16;0.90;;;0.90;;
7076;SDS011;3579;48.956;9.154;2023-05-14T05:15:42;0.70;;;0.70;;
7076;SDS011;3579;48.956;9.154;2023-05-14T05:18:08;0.80;;;0.80;;
7076;SDS011;3579;48.956;9.154;2023-05-14T05:20:34;0.90;;;0.90;;
7076;SDS011;3579;48.956;9.154;2023-05-14T05:23:00;0.80;;;0.80;;
7076;SDS011;3579;48.956;9.154;2023-05-14T05:25:26;1.10;;;1.00;;
7076;SDS011;3579;48.956;9.154;2023-05-14T05:27:52;0.80;;;0.80;;
7076;SDS011;3579;48.956;9.154;2023-05-14T05:30:18;1.10;;;1.00;;
7076;SDS011;3579;48.956;9.154;2023-05-14T05:32:44;0.90;;;0.90;;
7076;SDS011;3579;48.956;9.154;2023-05-14T05:35:10;0.90;;;0.90;;
7076;SDS011;3579;48.956;9.154;2023-05-14T05:37:36;0.70;;;0.70;;
7076;SDS011;3579;48.956;9.154;2023-05-14T05:40:02;0.80;;;0.80;;
7076;SDS011;3579;48.956;9.154;2023-05-14T05:42:30;0.90;;;0.90;;
7076;SDS011;3579;48.956;9.154;2023-05-14T05:44:56;0.80;;;0.80;;
7076;SDS011;3579;48.956;9.154;2023-05-14T05:47:22;0.80;;;0.80;;
7076;SDS011;3579;48.956;9.154;2023-05-14T05:49:48;0.80;;;0.80;;
7076;SDS011;3579;48.956;9.154;2023-05-14T05:52:14;1.00;;;0.90;;
7076;SDS011;3579;48.956;9.154;2023-05-14T05:54:40;0.90;;;0.90;;
7076;SDS011;3579;48.956;9.154;2023-05-14T05:57:06;0.87;;;0.87;;
7076;SDS011;3579;48.956;9.154;2023-05-14T05:59:32;0.87;;;0.87;;
7076;SDS011;3579;48.956;9.154;2023-05-14T06:01:58;0.90;;;0.90;;
7076;SDS011;3579;48.956;9.154;2023-05-14T06:04:24;0.93;;;0.93;;
7076;SDS011;3579;48.956;9.154;2023-05-14T06:06:50;0.90;;;0.90;;
7076;SDS011;3579;48.956;9.154;2023-05-14T06:09:16;0.97;;;0.90;;
7076;SDS011;3579;48.956;9.154;2023-05-14T06:11:42;0.80;;;0.80;;
7076;SDS011;3579;48.956;9.154;2023-05-14T06:14:08;0.83;;;0.80;;
7076;SDS011;3579;48.956;9.154;2023-05-14T06:16:34;0.80;;;0.80;;
7076;SDS011;3579;48.956;9.154;2023-05-14T06:19:00;0.90;;;0.90;;
7076;SDS011;3579;48.956;9.154;2023-05-14T06:21:26;0.70;;;0.70;;
7076;SDS011;3579;48.956;9.154;2023-05-14T06:23:52;0.80;;;0.80;;
7076;SDS011;3579;48.956;9.154;2023-05-14T06:26:18;0.80;;;0.80;;
7076;SDS011;3579;48.956;9.154;2023-05-14T06:28:44;0.90;;;0.90;;
7076;SDS011;3579;48.956;9.154;2023-05-14T06:31:10;0.80;;;0.80;;
7076;SDS011;3579;48.956;9.154;2023-05-14T06:33:36;0.80;;;0.80;;
7076;SDS011;3579;48.956;9.154;2023-05-14T06:36:03;1.00;;;1.00;;
7076;SDS011;3579;48.956;9.154;2023-05-14T06:38:30;0.90;;;0.90;;
7076;SDS011;3579;48.956;9.154;2023-05-14T06:40:56;0.80;;;0.80;;
7076;SDS011;3579;48.956;9.154;2023-05-14T06:43:22;0.90;;;0.90;;
7076;SDS011;3579;48.956;9.154;2023-05-14T06:45:49;0.93;;;0.90;;
7076;SDS011;3579;48.956;9.154;2023-05-14T06:48:15;0.80;;;0.80;;
7076;SDS011;3579;48.956;9.154;2023-05-14T06:50:46;0.87;;;0.87;;
7076;SDS011;3579;48.956;9.154;2023-05-14T06:53:13;1.00;;;1.00;;
7076;SDS011;3579;48.956;9.154;2023-05-14T06:55:39;1.10;;;1.00;;
7076;SDS011;3579;48.956;9.154;2023-05-14T06:58:06;0.80;;;0.80;;
7076;SDS011;3579;48.956;9.154;2023-05-14T07:00:32;0.80;;;0.80;;
7076;SDS011;3579;48.956;9.154;2023-05-14T07:02:58;0.80;;;0.80;;
7076;SDS011;3579;48.956;9.154;2023-05-14T07:05:24;0.90;;;0.90;;
7076;SDS011;3579;48.956;9.154;2023-05-14T07:07:50;1.10;;;1.00;;
7076;SDS011;3579;48.956;9.154;2023-05-14T07:10:17;0.90;;;0.90;;
7076;SDS011;3579;48.956;9.154;2023-05-14T07:12:43;0.90;;;0.90;;
7076;SDS011;3579;48.956;9.154;2023-05-14T07:15:09;1.10;;;0.90;;
7076;SDS011;3579;48.956;9.154;2023-05-14T07:17:36;1.00;;;1.00;;
7076;SDS011;3579;48.956;9.154;2023-05-14T07:20:02;0.80;;;0.80;;
7076;SDS011;3579;48.956;9.154;2023-05-14T07:22:28;0.80;;;0.80;;
7076;SDS011;3579;48.956;9.154;2023-05-14T07:24:54;0.90;;;0.90;;
7076;SDS011;3579;48.956;9.154;2023-05-14T07:27:20;0.80;;;0.80;;
7076;SDS011;3579;48.956;9.154;2023-05-14T07:29:46;1.10;;;1.00;;
7076;SDS011;3579;48.956;9.154;2023-05-14T07:32:13;0.83;;;0.83;;
7076;SDS011;3579;48.956;9.154;2023-05-14T07:34:39;1.03;;;1.00;;
7076;SDS011;3579;48.956;9.154;2023-05-14T07:37:05;1.00;;;1.00;;
7076;SDS011;3579;48.956;9.154;2023-05-14T07:39:31;0.90;;;0.90;;
7076;SDS011;3579;48.956;9.154;2023-05-14T07:41:58;0.90;;;0.90;;
7076;SDS011;3579;48.956;9.154;2023-05-14T07:44:25;0.90;;;0.90;;
7076;SDS011;3579;48.956;9.154;2023-05-14T07:46:51;0.90;;;0.90;;
7076;SDS011;3579;48.956;9.154;2023-05-14T07:49:17;1.00;;;1.00;;
7076;SDS011;3579;48.956;9.154;2023-05-14T07:51:43;0.90;;;0.90;;
7076;SDS011;3579;48.956;9.154;2023-05-14T07:54:09;0.83;;;0.83;;
7076;SDS011;3579;48.956;9.154;2023-05-14T07:56:35;0.70;;;0.70;;
7076;SDS011;3579;48.956;9.154;2023-05-14T07:59:01;0.90;;;0.90;;
7076;SDS011;3579;48.956;9.154;2023-05-14T08:01:27;0.80;;;0.80;;
7076;SDS011;3579;48.956;9.154;2023-05-14T08:03:53;0.90;;;0.90;;
7076;SDS011;3579;48.956;9.154;2023-05-14T08:06:19;1.10;;;1.00;;
7076;SDS011;3579;48.956;9.154;2023-05-14T08:08:47;0.93;;;0.93;;
7076;SDS011;3579;48.956;9.154;2023-05-14T08:11:13;0.90;;;0.90;;
7076;SDS011;3579;48.956;9.154;2023-05-14T08:13:39;1.00;;;0.90;;
7076;SDS011;3579;48.956;9.154;2023-05-14T08:16:05;0.93;;;0.90;;
7076;SDS011;3579;48.956;9.154;2023-05-14T08:18:32;0.90;;;0.90;;
7076;SDS011;3579;48.956;9.154;2023-05-14T08:20:58;0.97;;;0.97;;
7076;SDS011;3579;48.956;9.154;2023-05-14T08:23:24;1.10;;;1.00;;
7076;SDS011;3579;48.956;9.154;2023-05-14T08:25:50;0.90;;;0.90;;
7076;SDS011;3579;48.956;9.154;2023-05-14T08:28:16;0.90;;;0.90;;
7076;SDS011;3579;48.956;9.154;2023-05-14T08:30:42;0.83;;;0.83;;
7076;SDS011;3579;48.956;9.154;2023-05-14T08:33:08;0.83;;;0.83;;
7076;SDS011;3579;48.956;9.154;2023-05-14T08:35:34;0.90;;;0.90;;
7076;SDS011;3579;48.956;9.154;2023-05-14T08:38:00;0.83;;;0.83;;
7076;SDS011;3579;48.956;9.154;2023-05-14T08:40:26;1.20;;;1.10;;
7076;SDS011;3579;48.956;9.154;2023-05-14T08:42:53;0.90;;;0.90;;
7076;SDS011;3579;48.956;9.154;2023-05-14T08:45:22;0.87;;;0.87;;
7076;SDS011;3579;48.956;9.154;2023-05-14T08:47:59;0.90;;;0.90;;
7076;SDS011;3579;48.956;9.154;2023-05-14T08:50:26;1.00;;;0.90;;
7076;SDS011;3579;48.956;9.154;2023-05-14T08:52:54;1.00;;;0.90;;
7076;SDS011;3579;48.956;9.154;2023-05-14T08:55:20;0.90;;;0.90;;
7076;SDS011;3579;48.956;9.154;2023-05-14T08:57:47;0.90;;;0.90;;
7076;SDS011;3579;48.956;9.154;2023-05-14T09:00:13;0.80;;;0.80;;
7076;SDS011;3579;48.956;9.154;2023-05-14T09:02:40;0.80;;;0.80;;
7076;SDS011;3579;48.956;9.154;2023-05-14T09:05:08;0.90;;;0.90;;
7076;SDS011;3579;48.956;9.154;2023-05-14T09:07:35;1.00;;;1.00;;
7076;SDS011;3579;48.956;9.154;2023-05-14T09:10:01;1.00;;;1.00;;
7076;SDS011;3579;48.956;9.154;2023-05-14T09:12:28;1.10;;;1.00;;
7076;SDS011;3579;48.956;9.154;2023-05-14T09:14:54;0.90;;;0.90;;
7076;SDS011;3579;48.956;9.154;2023-05-14T09:17:20;0.80;;;0.80;;
7076;SDS011;3579;48.956;9.154;2023-05-14T09:19:46;0.80;;;0.80;;
7076;SDS011;3579;48.956;9.154;2023-05-14T09:22:14;0.90;;;0.90;;
7076;SDS011;3579;48.956;9.154;2023-05-14T09:24:41;0.90;;;0.90;;
7076;SDS011;3579;48.956;9.154;2023-05-14T09:27:08;0.93;;;0.90;;
7076;SDS011;3579;48.956;9.154;2023-05-14T09:29:40;0.90;;;0.90;;
7076;SDS011;3579;48.956;9.154;2023-05-14T09:32:06;0.90;;;0.90;;
7076;SDS011;3579;48.956;9.154;2023-05-14T09:34:34;0.83;;;0.83;;
7076;SDS011;3579;48.956;9.154;2023-05-14T09:37:04;0.90;;;0.90;;
7076;SDS011;3579;48.956;9.154;2023-05-14T09:39:31;1.00;;;0.90;;
7076;SDS011;3579;48.956;9.154;2023-05-14T09:41:58;0.90;;;0.90;;
7076;SDS011;3579;48.956;9.154;2023-05-14T09:44:25;0.97;;;0.90;;
7076;SDS011;3579;48.956;9.154;2023-05-14T09:46:51;0.90;;;0.90;;
7076;SDS011;3579;48.956;9.154;2023-05-14T09:49:19;1.00;;;1.00;;
7076;SDS011;3579;48.956;9.154;2023-05-14T09:51:45;0.97;;;0.97;;
7076;SDS011;3579;48.956;9.154;2023-05-14T09:54:12;1.17;;;1.07;;
7076;SDS011;3579;48.956;9.154;2023-05-14T09:56:38;0.90;;;0.90;;
7076;SDS011;3579;48.956;9.154;2023-05-14T09:59:05;0.90;;;0.90;;
7076;SDS011;3579;48.956;9.154;2023-05-14T10:01:31;1.17;;;1.07;;
7076;SDS011;3579;48.956;9.154;2023-05-14T10:03:58;0.80;;;0.80;;
7076;SDS011;3579;48.956;9.154;2023-05-14T10:06:26;0.90;;;0.90;;
7076;SDS011;3579;48.956;9.154;2023-05-14T10:08:55;1.07;;;1.00;;
7076;SDS011;3579;48.956;9.154;2023-05-14T10:11:27;0.87;;;0.87;;
7076;SDS011;3579;48.956;9.154;2023-05-14T10:16:39;0.90;;;0.90;;
7076;SDS011;3579;48.956;9.154;2023-05-14T10:19:08;0.80;;;0.80;;
7076;SDS011;3579;48.956;9.154;2023-05-14T10:21:37;0.90;;;0.90;;
7076;SDS011;3579;48.956;9.154;2023-05-14T10:24:05;0.90;;;0.90;;
7076;SDS011;3579;48.956;9.154;2023-05-14T10:26:33;0.90;;;0.90;;
7076;SDS011;3579;48.956;9.154;2023-05-14T10:29:03;1.10;;;1.00;;
7076;SDS011;3579;48.956;9.154;2023-05-14T10:34:31;1.10;;;1.00;;
7076;SDS011;3579;48.956;9.154;2023-05-14T10:39:42;0.90;;;0.90;;
7076;SDS011;3579;48.956;9.154;2023-05-14T10:47:17;1.10;;;1.00;;
7076;SDS011;3579;48.956;9.154;2023-05-14T10:49:44;1.10;;;1.00;;
7076;SDS011;3579;48.956;9.154;2023-05-14T10:52:14;1.17;;;1.07;;
7076;SDS011;3579;48.956;9.154;2023-05-14T10:57:16;1.00;;;1.00;;
7076;SDS011;3579;48.956;9.154;2023-05-14T10:59:43;1.10;;;1.00;;
7076;SDS011;3579;48.956;9.154;2023-05-14T11:02:19;1.27;;;1.17;;
7076;SDS011;3579;48.956;9.154;2023-05-14T11:07:29;1.10;;;1.00;;
7076;SDS011;3579;48.956;9.154;2023-05-14T11:10:00;1.10;;;1.00;;
7076;SDS011;3579;48.956;9.154;2023-05-14T11:12:35;1.00;;;1.00;;
7076;SDS011;3579;48.956;9.154;2023-05-14T11:15:06;1.03;;;1.03;;
7076;SDS011;3579;48.956;9.154;2023-05-14T11:17:34;1.20;;;1.10;;
7076;SDS011;3579;48.956;9.154;2023-05-14T11:20:01;1.23;;;1.13;;
7076;SDS011;3579;48.956;9.154;2023-05-14T11:22:27;0.90;;;0.90;;
7076;SDS011;3579;48.956;9.154;2023-05-14T11:24:53;1.03;;;1.00;;
7076;SDS011;3579;48.956;9.154;2023-05-14T11:27:20;1.23;;;1.13;;
7076;SDS011;3579;48.956;9.154;2023-05-14T11:29:47;1.00;;;1.00;;
7076;SDS011;3579;48.956;9.154;2023-05-14T11:32:14;1.10;;;1.00;;
7076;SDS011;3579;48.956;9.154;2023-05-14T11:34:41;1.37;;;1.27;;
7076;SDS011;3579;48.956;9.154;2023-05-14T11:37:12;1.10;;;1.00;;
7076;SDS011;3579;48.956;9.154;2023-05-14T11:39:45;1.00;;;1.00;;
7076;SDS011;3579;48.956;9.154;2023-05-14T11:42:16;1.30;;;1.20;;
7076;SDS011;3579;48.956;9.154;2023-05-14T11:44:47;1.13;;;1.03;;
7076;SDS011;3579;48.956;9.154;2023-05-14T11:47:16;1.40;;;1.17;;
7076;SDS011;3579;48.956;9.154;2023-05-14T11:49:44;1.20;;;1.10;;
7076;SDS011;3579;48.956;9.154;2023-05-14T11:52:10;1.07;;;1.00;;
7076;SDS011;3579;48.956;9.154;2023-05-14T11:54:41;1.10;;;1.10;;
7076;SDS011;3579;48.956;9.154;2023-05-14T11:57:09;1.20;;;1.10;;
7076;SDS011;3579;48.956;9.154;2023-05-14T11:59:37;1.23;;;1.13;;
7076;SDS011;3579;48.956;9.154;2023-05-14T12:02:04;1.37;;;1.27;;
7076;SDS011;3579;48.956;9.154;2023-05-14T12:04:34;1.30;;;1.20;;
7076;SDS011;3579;48.956;9.154;2023-05-14T12:07:06;1.30;;;1.20;;
7076;SDS011;3579;48.956;9.154;2023-05-14T12:09:37;1.07;;;1.00;;
7076;SDS011;3579;48.956;9.154;2023-05-14T12:12:09;1.20;;;1.10;;
7076;SDS011;3579;48.956;9.154;2023-05-14T12:14:36;0.90;;;0.90;;
7076;SDS011;3579;48.956;9.154;2023-05-14T12:17:21;1.47;;;1.30;;
7076;SDS011;3579;48.956;9.154;2023-05-14T12:19:49;1.30;;;1.20;;
7076;SDS011;3579;48.956;9.154;2023-05-14T12:22:21;1.30;;;1.20;;
7076;SDS011;3579;48.956;9.154;2023-05-14T12:24:54;1.17;;;1.07;;
7076;SDS011;3579;48.956;9.154;2023-05-14T12:27:21;1.20;;;1.10;;
7076;SDS011;3579;48.956;9.154;2023-05-14T12:30:01;1.30;;;1.20;;
7076;SDS011;3579;48.956;9.154;2023-05-14T12:32:32;1.70;;;1.33;;
7076;SDS011;3579;48.956;9.154;2023-05-14T12:34:59;1.50;;;1.40;;
7076;SDS011;3579;48.956;9.154;2023-05-14T12:37:28;1.20;;;1.10;;
7076;SDS011;3579;48.956;9.154;2023-05-14T12:39:54;1.33;;;1.23;;
7076;SDS011;3579;48.956;9.154;2023-05-14T12:42:20;1.27;;;1.17;;
7076;SDS011;3579;48.956;9.154;2023-05-14T12:44:46;1.40;;;1.30;;
7076;SDS011;3579;48.956;9.154;2023-05-14T12:47:12;1.40;;;1.30;;
7076;SDS011;3579;48.956;9.154;2023-05-14T12:49:39;1.40;;;1.30;;
7076;SDS011;3579;48.956;9.154;2023-05-14T12:52:05;1.30;;;1.20;;
7076;SDS011;3579;48.956;9.154;2023-05-14T12:54:31;1.43;;;1.33;;
7076;SDS011;3579;48.956;9.154;2023-05-14T12:56:57;1.50;;;1.40;;
7076;SDS011;3579;48.956;9.154;2023-05-14T12:59:23;1.40;;;1.30;;
7076;SDS011;3579;48.956;9.154;2023-05-14T13:01:49;1.40;;;1.30;;
7076;SDS011;3579;48.956;9.154;2023-05-14T13:04:15;1.30;;;1.20;;
7076;SDS011;3579;48.956;9.154;2023-05-14T13:06:41;1.40;;;1.30;;
7076;SDS011;3579;48.956;9.154;2023-05-14T13:09:07;1.40;;;1.30;;
7076;SDS011;3579;48.956;9.154;2023-05-14T13:11:33;1.30;;;1.20;;
7076;SDS011;3579;48.956;9.154;2023-05-14T13:14:00;1.43;;;1.33;;
7076;SDS011;3579;48.956;9.154;2023-05-14T13:16:27;1.40;;;1.30;;
7076;SDS011;3579;48.956;9.154;2023-05-14T13:18:53;1.50;;;1.40;;
7076;SDS011;3579;48.956;9.154;2023-05-14T13:21:20;1.30;;;1.20;;
7076;SDS011;3579;48.956;9.154;2023-05-14T13:23:49;1.20;;;1.10;;
7076;SDS011;3579;48.956;9.154;2023-05-14T13:26:15;1.20;;;1.10;;
7076;SDS011;3579;48.956;9.154;2023-05-14T13:28:41;1.57;;;1.47;;
7076;SDS011;3579;48.956;9.154;2023-05-14T13:31:11;1.60;;;1.50;;
7076;SDS011;3579;48.956;9.154;2023-05-14T13:33:39;1.50;;;1.40;;
7076;SDS011;3579;48.956;9.154;2023-05-14T13:36:07;1.47;;;1.37;;
7076;SDS011;3579;48.956;9.154;2023-05-14T13:38:34;1.40;;;1.30;;
7076;SDS011;3579;48.956;9.154;2023-05-14T13:41:00;1.47;;;1.37;;
7076;SDS011;3579;48.956;9.154;2023-05-14T13:43:30;1.30;;;1.20;;
7076;SDS011;3579;48.956;9.154;2023-05-14T13:46:00;1.50;;;1.40;;
7076;SDS011;3579;48.956;9.154;2023-05-14T13:48:27;1.57;;;1.47;;
7076;SDS011;3579;48.956;9.154;2023-05-14T13:50:53;1.43;;;1.33;;
7076;SDS011;3579;48.956;9.154;2023-05-14T13:53:20;1.50;;;1.40;;
7076;SDS011;3579;48.956;9.154;2023-05-14T13:55:47;1.50;;;1.40;;
7076;SDS011;3579;48.956;9.154;2023-05-14T13:58:13;1.50;;;1.40;;
7076;SDS011;3579;48.956;9.154;2023-05-14T14:00:40;1.30;;;1.20;;
7076;SDS011;3579;48.956;9.154;2023-05-14T14:03:07;1.60;;;1.50;;
7076;SDS011;3579;48.956;9.154;2023-05-14T14:05:34;1.50;;;1.40;;
7076;SDS011;3579;48.956;9.154;2023-05-14T14:08:00;1.43;;;1.30;;
7076;SDS011;3579;48.956;9.154;2023-05-14T14:10:26;1.70;;;1.60;;
7076;SDS011;3579;48.956;9.154;2023-05-14T14:12:52;1.50;;;1.40;;
7076;SDS011;3579;48.956;9.154;2023-05-14T14:15:18;1.53;;;1.20;;
7076;SDS011;3579;48.956;9.154;2023-05-14T14:17:45;1.50;;;1.40;;
7076;SDS011;3579;48.956;9.154;2023-05-14T14:20:12;1.60;;;1.50;;
7076;SDS011;3579;48.956;9.154;2023-05-14T14:22:39;1.50;;;1.40;;
7076;SDS011;3579;48.956;9.154;2023-05-14T14:25:07;1.60;;;1.50;;
7076;SDS011;3579;48.956;9.154;2023-05-14T14:27:34;1.87;;;1.50;;
7076;SDS011;3579;48.956;9.154;2023-05-14T14:32:34;1.70;;;1.60;;
7076;SDS011;3579;48.956;9.154;2023-05-14T14:35:00;1.50;;;1.40;;
7076;SDS011;3579;48.956;9.154;2023-05-14T14:37:26;1.60;;;1.50;;
7076;SDS011;3579;48.956;9.154;2023-05-14T14:39:52;1.60;;;1.50;;
7076;SDS011;3579;48.956;9.154;2023-05-14T14:42:18;1.37;;;1.27;;
7076;SDS011;3579;48.956;9.154;2023-05-14T14:44:44;1.60;;;1.50;;
7076;SDS011;3579;48.956;9.154;2023-05-14T14:47:10;1.93;;;1.63;;
7076;SDS011;3579;48.956;9.154;2023-05-14T14:49:36;1.43;;;1.33;;
7076;SDS011;3579;48.956;9.154;2023-05-14T14:52:02;1.60;;;1.50;;
7076;SDS011;3579;48.956;9.154;2023-05-14T14:54:28;1.60;;;1.50;;
7076;SDS011;3579;48.956;9.154;2023-05-14T14:56:54;1.60;;;1.50;;
7076;SDS011;3579;48.956;9.154;2023-05-14T14:59:20;1.50;;;1.40;;
7076;SDS011;3579;48.956;9.154;2023-05-14T15:01:46;1.40;;;1.30;;
7076;SDS011;3579;48.956;9.154;2023-05-14T15:04:12;1.67;;;1.47;;
7076;SDS011;3579;48.956;9.154;2023-05-14T15:06:38;1.60;;;1.50;;
7076;SDS011;3579;48.956;9.154;2023-05-14T15:09:04;1.43;;;1.33;;
7076;SDS011;3579;48.956;9.154;2023-05-14T15:11:32;1.47;;;1.37;;
7076;SDS011;3579;48.956;9.154;2023-05-14T15:13:58;1.70;;;1.60;;
7076;SDS011;3579;48.956;9.154;2023-05-14T15:16:24;1.50;;;1.40;;
7076;SDS011;3579;48.956;9.154;2023-05-14T15:18:50;1.70;;;1.60;;
7076;SDS011;3579;48.956;9.154;2023-05-14T15:21:16;1.67;;;1.57;;
7076;SDS011;3579;48.956;9.154;2023-05-14T15:23:43;1.60;;;1.50;;
7076;SDS011;3579;48.956;9.154;2023-05-14T15:26:09;1.50;;;1.40;;
7076;SDS011;3579;48.956;9.154;2023-05-14T15:28:35;1.40;;;1.30;;
7076;SDS011;3579;48.956;9.154;2023-05-14T15:31:01;1.60;;;1.50;;
7076;SDS011;3579;48.956;9.154;2023-05-14T15:33:27;1.50;;;1.40;;
7076;SDS011;3579;48.956;9.154;2023-05-14T15:35:53;1.60;;;1.50;;
7076;SDS011;3579;48.956;9.154;2023-05-14T15:38:19;1.50;;;1.40;;
7076;SDS011;3579;48.956;9.154;2023-05-14T15:40:45;1.50;;;1.40;;
7076;SDS011;3579;48.956;9.154;2023-05-14T15:43:11;1.73;;;1.63;;
7076;SDS011;3579;48.956;9.154;2023-05-14T15:45:37;1.70;;;1.60;;